Historique des mesures à Cassis (13260), France
Quotidien Résumé Avril 2, 2018 Unités:  Métrique    US   Métrique/US
« Précédent (Jour)
Suivant (Jour) »
Quotidien Hebdomadaire Mensuel Annuel Période au choix
  Maximum: Minimum: Moyenne:
Température: TemperatureC °C 9.6 °C 13.1 °C
Point de rosée: DewpointC °C 4.4 °C 7 °C
Humidité: Humidity % 53 % 64 %
Vitesse du vent: 0 km/h 0 km/h 4.5 km/h
Rafales: 0 km/h - -
Vent:- - SSE
Pression: PressurehPa hPa 1009.0 hPa -
Précipitations: 0.0 mm    
Historical Graphs
 
 
Mesures pour : Avril 2, 2018
Heure Temperature Point de rosée Pression Vent Vitesse du vent Rafales Humidité Pluie (par heure) Conditions
TemperatureC °C DewpointC °C PressurehPa hPa Calm     Humidity % HourlyPrecipMM mm SoftwareType W/m2
00:10 11.9 °C 6.2 °C 1011.1 hPa Calm   3.4 km/h 68 % 0.0 mm open2300-1.11 W/m2
01:10 11.2 °C 5.7 °C 1011.1 hPa Calm     69 % 0.0 mm open2300-1.11 W/m2
02:10 10.9 °C 5.9 °C 1011.1 hPa North 2.9 km/h 2.9 km/h 71 % 0.0 mm open2300-1.11 W/m2
03:10 10.7 °C 5.9 °C 1010.7 hPa Calm   2.9 km/h 72 % 0.0 mm open2300-1.11 W/m2
04:10 10.1 °C 5.7 °C 1010.4 hPa Calm     74 % 0.0 mm open2300-1.11 W/m2
05:10 9.6 °C 5.6 °C 1010.0 hPa ENE 6.4 km/h 6.4 km/h 76 % 0.0 mm open2300-1.11 W/m2
06:10 9.6 °C 6.1 °C 1010.0 hPa WNW 8 km/h 8 km/h 79 % 0.0 mm open2300-1.11 W/m2
07:12 9.6 °C 5.6 °C 1009.7 hPa NNW 2.3 km/h 2.3 km/h 76 % 0.0 mm open2300-1.11 W/m2
08:12 9.7 °C 5.1 °C 1010.4 hPa Calm     73 % 0.0 mm open2300-1.11 W/m2
09:12 11.4 °C 6.3 °C 1010.4 hPa Calm     71 % 0.0 mm open2300-1.11 W/m2
10:12 13.2 °C 7.9 °C 1010.7 hPa Calm     70 % 0.0 mm open2300-1.11 W/m2
11:12 15.6 °C 9.5 °C 1011.4 hPa NW 2.3 km/h 12.7 km/h 67 % 0.0 mm open2300-1.11 W/m2
12:11 17.8 °C 9.9 °C 1011.4 hPa SSW 4.2 km/h 7.6 km/h 60 % 0.0 mm open2300-1.11 W/m2
13:11 18.2 °C 9.2 °C 1011.1 hPa SSE 5.6 km/h 9.3 km/h 56 % 0.0 mm open2300-1.11 W/m2
14:12 18.7 °C 9.2 °C 1010.7 hPa South 17.9 km/h 17.9 km/h 54 % 0.0 mm open2300-1.11 W/m2
15:11 18.1 °C 9.1 °C 1010.7 hPa SSE 5.1 km/h 7.6 km/h 56 % 0.0 mm open2300-1.11 W/m2
16:11 17.4 °C 9.0 °C 1010.0 hPa SSE 10.3 km/h 11.6 km/h 58 % 0.0 mm open2300-1.11 W/m2
17:11 16.7 °C 9.2 °C 1010.0 hPa Calm   4.7 km/h 61 % 0.0 mm open2300-1.11 W/m2
18:11 15.6 °C 8.8 °C 1009.4 hPa ESE 6.9 km/h 9.3 km/h 64 % 0.0 mm open2300-1.11 W/m2
19:10 14.7 °C 8.6 °C 1009.4 hPa ESE 8 km/h 17.4 km/h 67 % 0.0 mm open2300-1.11 W/m2
20:10 14.3 °C 8.4 °C 1009.0 hPa ESE 5.1 km/h 12.2 km/h 68 % 0.0 mm open2300-1.11 W/m2
21:10 13.9 °C 7.4 °C 1009.7 hPa SE 8.9 km/h 8.9 km/h 65 % 0.0 mm open2300-1.11 W/m2
22:10 13.9 °C 6.3 °C 1010.0 hPa SE 6.9 km/h 7.6 km/h 60 % 0.0 mm open2300-1.11 W/m2
23:10 13.8 °C 4.4 °C 1009.7 hPa SSE 9.8 km/h 19.2 km/h 53 % 0.0 mm open2300-1.11 W/m2
Observations météo à CASSIS
WU-History script by Weather Underground - 1 mb